Time;durP1;ratioP1;P1;durP2;ratioP2;P2;SDS_P1;SDS_P2;PMS_P1;PMS_P2;Temp;Humidity;BMP_temperature;BMP_pressure;BME280_temperature;BME280_humidity;BME280_pressure;Samples;Min_cycle;Max_cycle;Signal;HPM_P1;HPM_P2
2021/05/21 00:00:15;;;;;;;3.05;1.48;;;11.60;99.90;;;;;;5056970;28;20027;-86
2021/05/21 00:02:41;;;;;;;2.40;1.30;;;11.70;99.90;;;;;;5038970;28;20025;-85
2021/05/21 00:05:08;;;;;;;3.17;1.40;;;11.70;99.90;;;;;;5038972;28;20036;-85
2021/05/21 00:07:33;;;;;;;6.72;1.67;;;11.70;99.90;;;;;;5038785;28;20033;-85
2021/05/21 00:09:59;;;;;;;2.85;1.30;;;11.70;99.90;;;;;;5056747;28;20388;-85
2021/05/21 00:12:25;;;;;;;3.15;1.52;;;11.60;99.90;;;;;;5056648;28;20088;-85
2021/05/21 00:14:50;;;;;;;2.83;1.50;;;11.50;99.90;;;;;;5056667;28;20021;-86
2021/05/21 00:17:16;;;;;;;2.70;1.30;;;11.50;99.90;;;;;;5056932;28;20013;-85
2021/05/21 00:19:42;;;;;;;2.90;1.40;;;11.40;99.90;;;;;;5056971;28;20032;-85
2021/05/21 00:22:08;;;;;;;2.15;1.40;;;11.30;99.90;;;;;;5038701;28;20028;-85
2021/05/21 00:24:34;;;;;;;4.03;1.50;;;11.30;99.90;;;;;;5056503;28;20025;-85
2021/05/21 00:26:59;;;;;;;2.92;1.67;;;11.20;99.90;;;;;;5056486;28;20055;-85
2021/05/21 00:29:25;;;;;;;2.67;1.60;;;11.30;99.90;;;;;;5056487;28;20496;-85
2021/05/21 00:31:51;;;;;;;2.28;1.50;;;11.30;99.90;;;;;;5038611;28;20032;-85
2021/05/21 00:34:16;;;;;;;4.88;1.38;;;11.30;99.90;;;;;;5056502;28;20017;-85
2021/05/21 00:36:42;;;;;;;2.38;1.30;;;11.20;99.90;;;;;;5038689;28;20075;-85
2021/05/21 00:39:08;;;;;;;3.08;1.40;;;11.20;99.90;;;;;;5038490;28;20025;-85
2021/05/21 00:41:34;;;;;;;2.45;1.35;;;11.10;99.90;;;;;;5038265;28;20499;-85
2021/05/21 00:43:59;;;;;;;4.30;1.50;;;11.20;99.90;;;;;;5038296;28;20033;-85
2021/05/21 00:46:25;;;;;;;5.13;1.50;;;11.30;99.90;;;;;;5056049;28;20040;-85
2021/05/21 00:48:51;;;;;;;2.35;1.25;;;11.20;99.90;;;;;;5038234;28;20079;-84
2021/05/21 00:51:17;;;;;;;2.95;1.58;;;11.10;99.90;;;;;;5055725;28;20045;-85
2021/05/21 00:53:44;;;;;;;5.13;1.42;;;11.10;99.90;;;;;;5038103;28;20028;-85
2021/05/21 00:56:10;;;;;;;5.05;1.38;;;11.10;99.90;;;;;;5055663;28;20024;-84
2021/05/21 00:58:37;;;;;;;6.15;1.50;;;11.10;99.90;;;;;;5037806;28;20075;-85
2021/05/21 01:01:04;;;;;;;2.17;1.50;;;11.00;99.90;;;;;;5056159;28;20487;-84
2021/05/21 01:03:29;;;;;;;4.50;1.10;;;11.10;99.90;;;;;;5056081;28;20048;-85
2021/05/21 01:05:55;;;;;;;1.83;1.15;;;11.10;99.90;;;;;;5055779;28;20017;-85
2021/05/21 01:08:21;;;;;;;4.13;1.35;;;10.90;99.90;;;;;;5037674;28;20215;-84
2021/05/21 01:10:47;;;;;;;3.90;1.40;;;10.90;99.90;;;;;;5037313;28;20025;-84
2021/05/21 01:13:13;;;;;;;2.20;1.10;;;10.90;99.90;;;;;;5055575;28;20039;-83
2021/05/21 01:15:41;;;;;;;2.17;1.13;;;11.00;99.90;;;;;;5037693;28;20399;-84
2021/05/21 01:18:09;;;;;;;2.83;1.30;;;11.00;99.90;;;;;;5037584;28;20021;-84
2021/05/21 01:20:36;;;;;;;4.18;1.23;;;11.00;99.90;;;;;;5037626;28;20021;-85
2021/05/21 01:23:03;;;;;;;5.13;1.20;;;11.00;99.90;;;;;;5037563;28;20029;-84
2021/05/21 01:25:29;;;;;;;2.95;1.40;;;10.90;99.90;;;;;;5037490;28;20032;-85
2021/05/21 01:27:56;;;;;;;3.80;1.10;;;10.90;99.90;;;;;;5055624;28;20147;-85
2021/05/21 01:30:22;;;;;;;4.30;1.20;;;11.00;99.90;;;;;;5037419;28;20029;-85
2021/05/21 01:32:49;;;;;;;2.60;1.35;;;11.00;99.90;;;;;;5055488;28;20083;-84
2021/05/21 01:35:16;;;;;;;1.60;1.20;;;11.00;99.90;;;;;;5055201;28;20044;-84
2021/05/21 01:37:43;;;;;;;3.42;1.30;;;11.00;99.90;;;;;;5037320;28;20025;-86
2021/05/21 01:40:11;;;;;;;3.00;1.10;;;11.00;99.90;;;;;;5037214;28;20109;-85
2021/05/21 01:42:37;;;;;;;3.40;1.30;;;11.10;99.90;;;;;;5037174;28;20492;-84
2021/05/21 01:45:04;;;;;;;5.82;1.30;;;11.00;99.90;;;;;;5037108;28;20370;-84
2021/05/21 01:47:29;;;;;;;2.70;1.20;;;11.00;99.90;;;;;;5037057;28;20044;-85
2021/05/21 01:49:56;;;;;;;4.68;1.15;;;11.10;99.90;;;;;;5036894;28;20519;-85
2021/05/21 01:52:22;;;;;;;3.95;1.20;;;11.10;99.90;;;;;;5055134;28;20058;-85
2021/05/21 01:54:48;;;;;;;1.40;1.10;;;11.10;99.90;;;;;;5036981;28;20567;-85
2021/05/21 01:57:14;;;;;;;1.92;1.15;;;11.10;99.90;;;;;;5037192;28;20029;-85
2021/05/21 01:59:40;;;;;;;4.90;1.27;;;11.20;99.90;;;;;;5036917;28;20369;-85
2021/05/21 02:02:06;;;;;;;1.55;1.08;;;11.10;99.90;;;;;;5036832;28;20036;-85
2021/05/21 02:04:37;;;;;;;4.03;1.20;;;11.20;99.90;;;;;;5054678;28;20036;-85
2021/05/21 02:07:05;;;;;;;5.45;1.30;;;11.20;99.90;;;;;;5036765;28;20107;-85
2021/05/21 02:09:44;;;;;;;2.45;1.40;;;11.10;99.90;;;;;;5054579;28;20060;-85
2021/05/21 02:12:10;;;;;;;1.83;1.23;;;11.10;99.90;;;;;;5036620;28;20036;-86
2021/05/21 02:14:36;;;;;;;1.20;0.85;;;11.00;99.90;;;;;;5036546;28;20124;-85
2021/05/21 02:17:02;;;;;;;2.30;1.20;;;11.00;99.90;;;;;;5036443;28;20056;-86
2021/05/21 02:19:28;;;;;;;1.75;1.10;;;11.10;99.90;;;;;;5036499;28;20111;-86
2021/05/21 02:21:53;;;;;;;3.60;1.15;;;11.20;99.90;;;;;;5035540;28;20033;-85
2021/05/21 02:24:19;;;;;;;4.70;1.27;;;11.00;99.90;;;;;;5054209;28;20025;-86
2021/05/21 02:26:45;;;;;;;1.92;1.02;;;11.00;99.90;;;;;;5036338;28;20028;-85
2021/05/21 02:29:10;;;;;;;1.77;1.00;;;11.00;99.90;;;;;;5036319;28;20056;-86
2021/05/21 02:31:36;;;;;;;1.55;1.00;;;11.00;99.90;;;;;;5036181;28;20025;-85
2021/05/21 02:34:02;;;;;;;1.98;0.95;;;10.90;99.90;;;;;;5054071;28;20100;-85
2021/05/21 02:36:28;;;;;;;2.47;1.20;;;10.90;99.90;;;;;;5054032;28;20021;-85
2021/05/21 02:38:54;;;;;;;2.00;1.17;;;10.90;99.90;;;;;;5053971;28;20017;-86
2021/05/21 02:41:20;;;;;;;3.40;1.25;;;11.00;99.90;;;;;;5054218;28;20103;-86
2021/05/21 02:43:46;;;;;;;3.70;0.90;;;11.10;99.90;;;;;;5053883;28;20064;-85
2021/05/21 02:46:11;;;;;;;1.73;0.90;;;11.00;99.90;;;;;;5053845;28;20028;-85
2021/05/21 02:48:37;;;;;;;2.35;1.00;;;11.00;99.90;;;;;;5035921;28;20032;-86
2021/05/21 02:51:03;;;;;;;3.58;1.10;;;11.00;99.90;;;;;;5053537;28;20124;-85
2021/05/21 02:53:29;;;;;;;1.52;0.73;;;11.00;99.90;;;;;;5035831;28;20025;-84
2021/05/21 02:55:54;;;;;;;1.90;0.90;;;10.90;99.90;;;;;;5053782;28;20025;-85
2021/05/21 02:58:20;;;;;;;1.75;1.00;;;10.80;99.90;;;;;;5053817;28;20024;-86
2021/05/21 03:00:46;;;;;;;1.58;1.08;;;10.80;99.90;;;;;;5053739;28;20464;-86
2021/05/21 03:03:12;;;;;;;3.35;0.80;;;10.90;99.90;;;;;;5053892;28;20037;-86
2021/05/21 03:05:38;;;;;;;1.58;0.90;;;11.00;99.90;;;;;;5035690;28;20025;-85
2021/05/21 03:08:04;;;;;;;1.63;0.93;;;11.00;99.90;;;;;;5053510;28;20031;-85
2021/05/21 03:10:30;;;;;;;1.15;0.85;;;10.90;99.90;;;;;;5053708;28;20036;-86
2021/05/21 03:12:56;;;;;;;3.42;1.13;;;10.80;99.90;;;;;;5035458;28;20029;-85
2021/05/21 03:15:22;;;;;;;2.70;1.17;;;10.70;99.90;;;;;;5035544;28;20049;-85
2021/05/21 03:17:48;;;;;;;1.95;0.88;;;10.80;99.90;;;;;;5053371;28;20025;-86
2021/05/21 03:20:14;;;;;;;2.92;1.08;;;10.70;99.90;;;;;;5035513;28;20079;-85
2021/05/21 03:22:41;;;;;;;6.53;1.30;;;10.80;99.90;;;;;;5035386;28;20029;-85
2021/05/21 03:25:07;;;;;;;3.72;0.90;;;10.70;99.90;;;;;;5035493;28;20028;-85
2021/05/21 03:27:34;;;;;;;2.83;1.10;;;10.60;99.90;;;;;;5035604;28;20178;-85
2021/05/21 03:30:01;;;;;;;1.38;0.80;;;10.70;99.90;;;;;;5053216;28;20033;-85
2021/05/21 03:32:27;;;;;;;1.77;1.10;;;10.60;99.90;;;;;;5035037;28;20029;-85
2021/05/21 03:34:53;;;;;;;3.92;1.00;;;10.60;99.90;;;;;;5053530;28;20021;-85
2021/05/21 03:37:20;;;;;;;1.92;0.80;;;10.60;99.90;;;;;;5053153;28;20028;-85
2021/05/21 03:39:46;;;;;;;2.17;1.10;;;10.60;99.90;;;;;;5053142;28;20143;-85
2021/05/21 03:42:13;;;;;;;5.57;1.30;;;10.60;99.90;;;;;;5053664;28;20036;-85
2021/05/21 03:44:39;;;;;;;2.58;1.00;;;10.50;99.90;;;;;;5035185;28;20031;-85
2021/05/21 03:47:05;;;;;;;1.30;1.00;;;10.50;99.90;;;;;;5053053;28;20083;-85
2021/05/21 03:49:31;;;;;;;3.08;1.13;;;10.50;99.90;;;;;;5053063;28;20025;-85
2021/05/21 03:52:00;;;;;;;2.60;1.00;;;10.70;99.90;;;;;;5052991;28;20052;-85
2021/05/21 03:54:26;;;;;;;2.65;1.05;;;10.70;99.90;;;;;;5035134;28;20021;-84
2021/05/21 03:56:52;;;;;;;2.25;0.95;;;10.50;99.90;;;;;;5052996;28;20021;-85
2021/05/21 03:59:19;;;;;;;2.22;0.90;;;10.40;99.90;;;;;;5052950;28;20024;-84
2021/05/21 04:01:51;;;;;;;2.20;1.02;;;10.40;99.90;;;;;;5035041;28;20028;-85
2021/05/21 04:04:17;;;;;;;1.63;0.95;;;10.40;99.90;;;;;;5035090;28;20534;-85
2021/05/21 04:06:43;;;;;;;1.63;1.10;;;10.30;99.90;;;;;;5035080;28;20058;-86
2021/05/21 04:09:08;;;;;;;1.25;0.90;;;10.10;99.90;;;;;;5052890;28;20473;-85
2021/05/21 04:11:36;;;;;;;2.55;0.93;;;10.10;99.90;;;;;;5034872;28;20108;-86
2021/05/21 04:14:03;;;;;;;2.00;1.10;;;10.10;99.90;;;;;;5035000;28;20048;-85
2021/05/21 04:16:29;;;;;;;7.90;1.00;;;10.30;99.90;;;;;;5052787;28;20044;-85
2021/05/21 04:18:54;;;;;;;2.13;1.00;;;10.40;99.90;;;;;;5034952;28;20040;-85
2021/05/21 04:21:20;;;;;;;2.63;1.00;;;10.50;99.90;;;;;;5034913;28;20112;-85
2021/05/21 04:23:47;;;;;;;5.13;1.13;;;10.50;99.90;;;;;;5053252;28;20025;-85
2021/05/21 04:26:14;;;;;;;2.15;1.20;;;10.40;99.90;;;;;;5052704;28;20029;-85
2021/05/21 04:28:39;;;;;;;1.20;1.08;;;10.40;99.90;;;;;;5034889;28;20497;-85
2021/05/21 04:31:06;;;;;;;4.65;1.10;;;10.50;99.90;;;;;;5034676;28;20021;-84
2021/05/21 04:33:31;;;;;;;4.40;1.20;;;10.40;99.90;;;;;;5052625;28;20025;-83
2021/05/21 04:36:01;;;;;;;2.92;1.25;;;10.40;99.90;;;;;;5034758;28;20040;-85
2021/05/21 04:38:27;;;;;;;1.98;0.82;;;10.30;99.90;;;;;;5034702;28;20405;-85
2021/05/21 04:40:53;;;;;;;1.98;0.80;;;10.20;99.90;;;;;;5034733;28;20076;-85
2021/05/21 04:43:25;;;;;;;2.35;1.17;;;10.40;99.90;;;;;;5034753;28;20021;-85
2021/05/21 04:45:51;;;;;;;1.77;1.00;;;10.50;99.90;;;;;;5055794;28;20075;-85
2021/05/21 04:48:17;;;;;;;3.08;1.00;;;10.50;99.90;;;;;;5038135;28;20037;-85
2021/05/21 04:50:44;;;;;;;4.60;1.15;;;10.50;99.90;;;;;;5038188;28;20049;-85
2021/05/21 04:53:09;;;;;;;4.80;1.00;;;10.50;99.90;;;;;;5056216;28;20039;-85
2021/05/21 04:55:35;;;;;;;4.28;1.30;;;10.60;99.90;;;;;;5038142;28;20017;-83
2021/05/21 04:58:01;;;;;;;2.00;1.20;;;10.60;99.90;;;;;;5038135;28;20021;-85
2021/05/21 05:00:26;;;;;;;2.25;1.20;;;10.70;99.90;;;;;;5055901;28;20021;-85
2021/05/21 05:02:53;;;;;;;1.88;1.17;;;10.80;99.90;;;;;;5037829;28;20032;-85
2021/05/21 05:05:18;;;;;;;2.45;1.00;;;10.90;99.90;;;;;;5037935;28;20021;-85
2021/05/21 05:07:45;;;;;;;3.65;1.00;;;10.90;99.90;;;;;;5056081;28;20032;-86
2021/05/21 05:10:11;;;;;;;2.97;0.82;;;11.00;99.90;;;;;;5037815;28;20021;-85
2021/05/21 05:12:37;;;;;;;2.22;1.13;;;11.00;99.90;;;;;;5055530;28;20108;-85
2021/05/21 05:15:03;;;;;;;1.48;1.10;;;11.00;99.90;;;;;;5037816;28;20100;-87
2021/05/21 05:17:28;;;;;;;3.92;0.98;;;11.00;99.90;;;;;;5037692;28;20473;-85
2021/05/21 05:19:54;;;;;;;2.05;1.17;;;10.90;99.90;;;;;;5037755;28;20112;-85
2021/05/21 05:22:20;;;;;;;1.80;1.10;;;10.80;99.90;;;;;;5037639;28;20035;-85
2021/05/21 05:24:46;;;;;;;1.67;0.98;;;10.70;99.90;;;;;;5055415;28;20032;-84
2021/05/21 05:27:11;;;;;;;3.42;1.00;;;10.80;99.90;;;;;;5055454;28;20108;-85
2021/05/21 05:29:37;;;;;;;2.47;1.10;;;10.90;99.90;;;;;;5037508;28;20055;-85
2021/05/21 05:32:03;;;;;;;3.78;1.30;;;10.80;99.90;;;;;;5055296;28;20029;-85
2021/05/21 05:34:29;;;;;;;3.70;1.13;;;10.70;99.90;;;;;;5055544;28;20092;-86
2021/05/21 05:36:55;;;;;;;2.13;1.27;;;10.70;99.90;;;;;;5037343;28;20021;-84
2021/05/21 05:39:21;;;;;;;4.88;0.95;;;10.80;99.90;;;;;;5037395;28;20021;-85
2021/05/21 05:41:50;;;;;;;3.28;1.08;;;10.90;99.90;;;;;;5037271;28;20123;-85
2021/05/21 05:44:20;;;;;;;4.30;1.23;;;10.90;99.90;;;;;;5037370;28;20053;-84
2021/05/21 05:46:45;;;;;;;2.10;0.95;;;11.00;99.90;;;;;;5037028;28;20032;-86
2021/05/21 05:49:11;;;;;;;4.10;1.85;;;11.10;99.90;;;;;;5054975;28;20029;-85
2021/05/21 05:51:37;;;;;;;3.58;1.10;;;11.10;99.90;;;;;;5036763;28;20378;-85
2021/05/21 05:54:03;;;;;;;1.60;1.05;;;11.20;99.90;;;;;;5036974;28;20504;-85
2021/05/21 05:56:29;;;;;;;3.72;1.20;;;11.40;99.90;;;;;;5054987;28;20033;-85
2021/05/21 05:58:55;;;;;;;2.90;1.20;;;11.50;99.90;;;;;;5036880;28;20021;-85
2021/05/21 06:01:21;;;;;;;1.65;0.70;;;11.60;99.90;;;;;;5036910;28;20025;-85
2021/05/21 06:03:46;;;;;;;1.63;1.00;;;11.80;99.90;;;;;;5054997;28;20075;-85
2021/05/21 06:06:12;;;;;;;2.65;0.90;;;11.80;99.90;;;;;;5036769;28;20460;-85
2021/05/21 06:08:38;;;;;;;2.55;0.98;;;11.80;99.90;;;;;;5036815;28;20038;-84
2021/05/21 06:11:03;;;;;;;2.63;0.98;;;11.80;99.90;;;;;;5054816;28;20021;-84
2021/05/21 06:13:29;;;;;;;2.33;1.02;;;11.90;99.90;;;;;;5036781;28;20028;-85
2021/05/21 06:15:55;;;;;;;4.03;1.20;;;12.00;99.90;;;;;;5036591;28;20029;-85
2021/05/21 06:18:21;;;;;;;4.18;1.40;;;12.20;99.90;;;;;;5036538;28;20049;-85
2021/05/21 06:20:47;;;;;;;3.60;1.20;;;12.30;99.90;;;;;;5054328;28;20027;-86
2021/05/21 06:23:13;;;;;;;3.88;1.35;;;12.50;99.90;;;;;;5036390;28;20062;-85
2021/05/21 06:28:11;;;;;;;2.50;1.00;;;12.30;99.90;;;;;;5054932;28;20067;-84
2021/05/21 06:30:38;;;;;;;4.72;1.10;;;12.30;99.90;;;;;;5054241;28;20031;-84
2021/05/21 06:33:04;;;;;;;3.47;1.08;;;12.40;99.90;;;;;;5036404;28;20033;-83
2021/05/21 06:35:34;;;;;;;3.35;1.00;;;12.30;99.90;;;;;;5054147;28;20024;-84
2021/05/21 06:38:00;;;;;;;2.42;0.80;;;12.30;99.90;;;;;;5036228;28;20515;-84
2021/05/21 06:40:25;;;;;;;2.40;1.00;;;12.40;99.90;;;;;;5053987;28;20044;-84
2021/05/21 06:42:51;;;;;;;2.55;1.10;;;12.40;99.90;;;;;;5053941;28;20063;-84
2021/05/21 06:45:17;;;;;;;2.92;0.93;;;12.40;99.90;;;;;;5035983;28;20021;-83
2021/05/21 06:47:43;;;;;;;2.92;1.10;;;12.40;99.90;;;;;;5036012;28;20070;-83
2021/05/21 06:50:09;;;;;;;1.70;1.05;;;12.30;99.90;;;;;;5053558;28;20045;-83
2021/05/21 06:52:36;;;;;;;4.60;0.93;;;12.40;99.90;;;;;;5035809;28;20033;-83
2021/05/21 06:55:02;;;;;;;2.65;1.05;;;12.50;99.90;;;;;;5035885;28;20396;-84
2021/05/21 06:57:27;;;;;;;1.52;0.90;;;12.60;99.90;;;;;;5036474;28;20028;-85
2021/05/21 06:59:53;;;;;;;3.40;1.10;;;12.80;99.90;;;;;;5053803;28;20029;-85
2021/05/21 07:02:20;;;;;;;3.38;0.98;;;12.60;99.90;;;;;;5035802;28;20374;-85
2021/05/21 07:04:45;;;;;;;2.92;1.08;;;12.60;99.90;;;;;;5035817;28;20025;-85
2021/05/21 07:07:11;;;;;;;1.95;1.00;;;12.60;99.90;;;;;;5035441;28;20032;-85
2021/05/21 07:09:37;;;;;;;4.85;1.20;;;12.70;99.90;;;;;;5035899;28;20025;-85
2021/05/21 07:12:03;;;;;;;3.42;1.15;;;12.60;99.90;;;;;;5035966;28;20032;-85
2021/05/21 07:14:31;;;;;;;3.53;0.88;;;12.60;99.90;;;;;;5054078;28;20033;-86
2021/05/21 07:16:56;;;;;;;4.32;1.02;;;12.70;99.90;;;;;;5054068;28;20100;-86
2021/05/21 07:19:22;;;;;;;4.55;1.00;;;12.70;99.90;;;;;;5036086;28;20029;-85
2021/05/21 07:21:48;;;;;;;1.63;1.10;;;12.60;99.90;;;;;;5035909;28;20362;-85
2021/05/21 07:24:13;;;;;;;3.60;0.75;;;12.70;99.90;;;;;;5035830;28;20025;-86
2021/05/21 07:26:40;;;;;;;1.58;1.05;;;12.80;99.90;;;;;;5053718;28;20029;-85
2021/05/21 07:29:06;;;;;;;3.05;0.77;;;12.80;99.90;;;;;;5035709;28;20026;-84
2021/05/21 07:31:33;;;;;;;4.55;0.80;;;12.80;99.90;;;;;;5035352;28;20480;-85
2021/05/21 07:34:00;;;;;;;2.30;1.05;;;12.70;99.90;;;;;;5035512;28;20480;-86
2021/05/21 07:36:28;;;;;;;3.58;0.98;;;12.80;99.90;;;;;;5053355;28;20053;-87
2021/05/21 07:38:56;;;;;;;1.88;1.08;;;12.90;99.90;;;;;;5035571;28;20025;-85
2021/05/21 07:41:22;;;;;;;3.70;0.90;;;12.80;99.90;;;;;;5035421;28;20052;-85
2021/05/21 07:43:49;;;;;;;2.35;0.93;;;12.70;99.90;;;;;;5035443;28;20048;-85
2021/05/21 07:46:15;;;;;;;2.80;0.80;;;12.70;99.90;;;;;;5036214;28;20473;-86
2021/05/21 07:48:42;;;;;;;6.50;0.80;;;12.80;99.90;;;;;;5036130;28;20045;-85
2021/05/21 07:51:09;;;;;;;5.00;1.10;;;12.90;99.90;;;;;;5021301;28;20486;-86
2021/05/21 07:53:35;;;;;;;2.88;0.98;;;13.10;99.90;;;;;;5012133;28;20034;-84
2021/05/21 07:56:04;;;;;;;2.08;0.73;;;13.10;99.90;;;;;;5013401;28;20022;-86
2021/05/21 07:58:30;;;;;;;9.57;1.02;;;13.20;99.90;;;;;;5013323;28;20474;-87
2021/05/21 08:00:57;;;;;;;2.97;0.90;;;13.20;99.90;;;;;;5012099;28;20022;-86
2021/05/21 08:03:23;;;;;;;5.85;0.98;;;13.10;99.90;;;;;;5011968;28;20029;-86
2021/05/21 08:05:48;;;;;;;1.75;0.82;;;13.20;99.90;;;;;;5011963;28;20026;-85
2021/05/21 08:08:24;;;;;;;1.35;0.80;;;13.30;99.90;;;;;;5013056;28;20026;-85
2021/05/21 08:10:58;;;;;;;2.63;0.80;;;13.40;99.90;;;;;;5011974;28;20048;-85
2021/05/21 08:13:25;;;;;;;;;;;13.40;99.90;;;;;;5014166;28;20172;-85
2021/05/21 08:15:51;;;;;;;2.92;1.02;;;13.30;99.90;;;;;;5013153;28;19906;-85
2021/05/21 08:18:18;;;;;;;3.60;0.90;;;13.40;99.90;;;;;;5011874;28;20061;-85
2021/05/21 08:20:44;;;;;;;2.78;0.90;;;13.50;99.90;;;;;;5016309;28;20049;-84
2021/05/21 08:23:11;;;;;;;3.15;0.93;;;13.50;99.90;;;;;;5015568;28;20116;-84
2021/05/21 08:25:37;;;;;;;2.90;1.05;;;13.70;99.90;;;;;;5015495;28;20105;-85
2021/05/21 08:28:03;;;;;;;4.10;0.80;;;13.80;99.90;;;;;;5015445;28;20515;-84
2021/05/21 08:30:29;;;;;;;3.00;0.77;;;13.80;99.90;;;;;;5017320;28;20474;-85
2021/05/21 08:32:54;;;;;;;7.70;0.98;;;13.90;99.90;;;;;;5015732;28;20026;-86
2021/05/21 08:35:21;;;;;;;6.50;1.00;;;14.00;99.90;;;;;;5017585;28;20156;-81
2021/05/21 08:37:49;;;;;;;2.58;0.70;;;14.10;99.90;;;;;;5017005;28;20026;-81
2021/05/21 08:40:22;;;;;;;3.83;0.63;;;14.10;99.90;;;;;;5016910;28;20054;-80
2021/05/21 08:42:57;;;;;;;1.70;0.60;;;14.10;99.90;;;;;;5016123;28;20026;-82
2021/05/21 08:45:24;;;;;;;3.30;0.65;;;14.10;99.90;;;;;;5017359;28;20026;-82
2021/05/21 08:47:50;;;;;;;3.83;0.70;;;14.10;99.90;;;;;;5016229;28;20033;-78
2021/05/21 08:50:17;;;;;;;2.08;0.77;;;14.00;99.90;;;;;;5025059;28;20518;-81
2021/05/21 08:52:42;;;;;;;2.20;0.80;;;14.00;99.90;;;;;;5057387;28;20029;-82
2021/05/21 08:55:09;;;;;;;2.28;0.70;;;14.00;99.90;;;;;;5039021;28;20021;-82
2021/05/21 08:57:35;;;;;;;2.05;0.60;;;14.00;99.90;;;;;;5039057;28;20021;-83
2021/05/21 09:00:01;;;;;;;2.80;0.77;;;14.00;99.90;;;;;;5038996;28;20021;-81
2021/05/21 09:02:29;;;;;;;7.07;0.60;;;13.90;99.90;;;;;;5056013;28;20381;-82
2021/05/21 09:05:00;;;;;;;2.70;0.50;;;13.90;99.90;;;;;;5038086;28;20166;-80
2021/05/21 09:07:31;;;;;;;8.52;1.02;;;13.90;99.90;;;;;;5038140;28;20127;-81
2021/05/21 09:10:04;;;;;;;3.03;0.68;;;13.90;99.90;;;;;;5037869;28;20025;-83
2021/05/21 09:12:56;;;;;;;1.13;0.60;;;13.90;99.90;;;;;;5056097;28;20503;-82
2021/05/21 09:15:26;;;;;;;4.55;0.88;;;14.00;99.90;;;;;;5036113;28;20115;-81
2021/05/21 09:17:58;;;;;;;6.75;0.70;;;14.00;99.90;;;;;;5037746;28;20052;-82
2021/05/21 09:20:39;;;;;;;1.55;0.70;;;14.00;99.90;;;;;;5037932;28;20064;-80
2021/05/21 09:23:08;;;;;;;2.92;0.80;;;14.00;99.90;;;;;;5055732;28;20036;-82
2021/05/21 09:25:38;;;;;;;5.15;0.63;;;14.00;99.90;;;;;;5055485;28;20029;-80
2021/05/21 09:28:05;;;;;;;1.77;0.60;;;13.90;99.90;;;;;;5037655;28;20036;-82
2021/05/21 09:30:31;;;;;;;1.20;0.50;;;14.00;99.90;;;;;;5037263;28;20426;-81
2021/05/21 09:33:06;;;;;;;1.75;0.60;;;14.00;99.90;;;;;;5055597;28;20104;-82
2021/05/21 09:35:33;;;;;;;3.80;0.80;;;13.90;99.90;;;;;;5037503;28;20025;-80
2021/05/21 09:37:58;;;;;;;6.03;0.60;;;13.80;99.90;;;;;;5055549;28;20025;-80
2021/05/21 09:40:26;;;;;;;6.18;0.70;;;13.80;99.90;;;;;;5055495;28;20078;-80
2021/05/21 09:43:05;;;;;;;3.15;0.88;;;13.70;99.90;;;;;;5037353;28;20032;-82
2021/05/21 09:45:36;;;;;;;1.48;0.70;;;13.70;99.90;;;;;;5055349;28;20021;-81
2021/05/21 09:48:10;;;;;;;3.58;0.60;;;13.70;99.90;;;;;;5055108;28;20033;-81
2021/05/21 09:50:37;;;;;;;4.63;0.60;;;13.60;99.90;;;;;;5055056;28;20049;-77
2021/05/21 09:53:22;;;;;;;3.85;0.55;;;13.50;99.90;;;;;;5054903;28;20492;-80
2021/05/21 09:55:52;;;;;;;;;;;13.40;99.90;;;;;;5037433;28;20025;-81
2021/05/21 09:58:26;;;;;;;1.65;0.50;;;13.40;99.90;;;;;;5055077;28;19905;-81
2021/05/21 10:01:11;;;;;;;1.60;0.50;;;13.30;99.90;;;;;;5054804;28;20381;-82
2021/05/21 10:03:39;;;;;;;4.28;0.60;;;13.30;99.90;;;;;;5055143;28;20111;-81
2021/05/21 10:06:05;;;;;;;1.25;0.43;;;13.30;99.90;;;;;;5036833;28;20078;-81
2021/05/21 10:08:31;;;;;;;6.35;0.52;;;13.30;99.90;;;;;;5036849;28;20036;-79
2021/05/21 10:10:58;;;;;;;2.40;0.75;;;13.30;99.90;;;;;;5036952;28;20499;-82
2021/05/21 10:13:23;;;;;;;3.88;0.40;;;13.20;99.90;;;;;;5036925;28;20028;-81
2021/05/21 10:15:50;;;;;;;5.10;0.60;;;13.30;99.90;;;;;;5054544;28;20029;-81
2021/05/21 10:18:17;;;;;;;1.45;0.50;;;13.20;99.90;;;;;;5054743;28;20047;-81
2021/05/21 10:20:44;;;;;;;1.50;0.57;;;13.30;99.90;;;;;;5054527;28;20025;-81
2021/05/21 10:23:17;;;;;;;2.55;0.55;;;13.40;99.90;;;;;;5055074;28;20388;-79
2021/05/21 10:25:44;;;;;;;4.25;0.60;;;13.30;99.90;;;;;;5037084;28;20079;-80
2021/05/21 10:28:11;;;;;;;1.58;0.77;;;13.40;99.90;;;;;;5054665;28;20098;-81
2021/05/21 10:30:37;;;;;;;3.22;0.68;;;13.40;99.90;;;;;;5037005;28;20056;-81
2021/05/21 10:33:16;;;;;;;4.50;0.80;;;13.50;99.90;;;;;;5036561;28;20025;-81
2021/05/21 10:35:42;;;;;;;4.35;0.50;;;13.50;99.90;;;;;;5054773;28;20032;-80
2021/05/21 10:38:17;;;;;;;0.60;0.50;;;13.50;99.90;;;;;;5054660;28;20029;-79
2021/05/21 10:40:44;;;;;;;1.77;0.55;;;13.50;99.90;;;;;;5036979;28;20080;-80
2021/05/21 10:43:22;;;;;;;1.05;0.70;;;13.50;99.90;;;;;;5035956;28;20495;-81
2021/05/21 10:45:55;;;;;;;1.15;0.60;;;13.60;99.90;;;;;;5036341;28;20063;-82
2021/05/21 10:48:27;;;;;;;2.42;0.70;;;13.60;99.90;;;;;;5054333;28;20103;-81
2021/05/21 10:51:11;;;;;;;3.33;0.70;;;13.70;99.90;;;;;;5054512;28;20045;-82
2021/05/21 10:53:46;;;;;;;3.75;0.60;;;13.80;99.90;;;;;;5036089;28;20120;-81
2021/05/21 10:56:13;;;;;;;2.33;0.50;;;13.90;99.90;;;;;;5036570;28;20025;-81
2021/05/21 10:58:44;;;;;;;2.10;0.50;;;13.80;99.90;;;;;;5054588;28;20083;-81
2021/05/21 11:01:15;;;;;;;1.80;0.40;;;13.90;99.90;;;;;;5036565;28;20115;-80
2021/05/21 11:03:56;;;;;;;4.25;0.70;;;13.90;99.90;;;;;;5036115;28;20043;-81
2021/05/21 11:06:27;;;;;;;1.15;0.60;;;14.10;99.90;;;;;;5035960;28;20029;-80
2021/05/21 11:09:04;;;;;;;2.67;0.70;;;14.10;99.90;;;;;;5036101;28;20055;-80
2021/05/21 11:11:47;;;;;;;3.60;0.65;;;14.10;99.90;;;;;;5035667;28;20443;-81
2021/05/21 11:14:23;;;;;;;1.48;0.50;;;14.30;99.90;;;;;;5036189;28;20110;-81
2021/05/21 11:16:58;;;;;;;5.93;1.00;;;14.30;99.90;;;;;;5035922;28;20021;-81
2021/05/21 11:19:26;;;;;;;3.08;0.75;;;14.40;99.90;;;;;;5054154;28;20024;-81
2021/05/21 11:22:29;;;;;;;1.58;0.50;;;14.40;99.90;;;;;;5053757;28;20117;-81
2021/05/21 11:25:04;;;;;;;3.20;0.68;;;14.60;99.90;;;;;;4975886;28;20030;-81
2021/05/21 11:27:32;;;;;;;1.60;0.70;;;14.70;99.90;;;;;;5045618;28;20037;-82
2021/05/21 11:30:00;;;;;;;1.55;0.40;;;14.90;99.90;;;;;;5053242;28;20025;-82
2021/05/21 11:32:27;;;;;;;3.50;0.70;;;14.80;99.90;;;;;;5035299;28;20032;-83
2021/05/21 11:34:53;;;;;;;1.98;0.68;;;15.00;99.90;;;;;;5035313;28;20025;-84
2021/05/21 11:37:27;;;;;;;2.70;0.60;;;15.10;99.90;;;;;;5053195;28;20472;-81
2021/05/21 11:39:54;;;;;;;1.50;0.60;;;15.10;99.90;;;;;;5035350;28;20032;-83
2021/05/21 11:42:24;;;;;;;2.95;0.50;;;15.00;99.90;;;;;;5053137;28;20124;-83
2021/05/21 11:44:55;;;;;;;2.35;0.52;;;14.80;99.90;;;;;;5035250;28;20119;-82
2021/05/21 11:47:35;;;;;;;2.20;0.50;;;14.80;99.90;;;;;;5032280;28;20510;-83
2021/05/21 11:50:02;;;;;;;1.27;0.60;;;14.80;99.90;;;;;;5053217;28;20468;-82
2021/05/21 11:52:28;;;;;;;4.40;1.00;;;14.70;99.90;;;;;;5035316;28;20112;-82
2021/05/21 11:54:56;;;;;;;1.65;0.60;;;14.60;99.90;;;;;;5038902;28;20208;-82
2021/05/21 11:57:24;;;;;;;1.27;0.60;;;14.60;99.90;;;;;;5057124;28;20025;-83
2021/05/21 11:59:53;;;;;;;1.85;0.55;;;14.70;99.90;;;;;;5039197;28;20028;-83
2021/05/21 12:02:20;;;;;;;2.03;0.60;;;14.60;99.90;;;;;;5057299;28;20387;-82
2021/05/21 12:04:47;;;;;;;0.98;0.30;;;14.60;99.90;;;;;;5039030;28;20431;-82
2021/05/21 12:07:20;;;;;;;4.25;0.80;;;14.60;99.90;;;;;;5057067;28;20079;-81
2021/05/21 12:10:02;;;;;;;2.42;0.47;;;14.60;99.90;;;;;;5057232;28;20024;-81
2021/05/21 12:12:29;;;;;;;2.55;0.45;;;14.60;99.90;;;;;;5038991;28;20110;-83
2021/05/21 12:15:25;;;;;;;4.07;0.55;;;14.70;99.90;;;;;;5039155;28;20430;-81
2021/05/21 12:17:50;;;;;;;;;;;14.80;99.90;;;;;;5044574;28;20036;-81
2021/05/21 12:20:19;;;;;;;2.33;0.50;;;14.80;99.90;;;;;;5039039;28;20318;-83
2021/05/21 12:22:59;;;;;;;3.72;0.70;;;14.70;99.90;;;;;;5039458;28;20040;-81
2021/05/21 12:25:28;;;;;;;3.97;0.90;;;14.60;99.90;;;;;;5039495;28;20055;-80
2021/05/21 12:27:55;;;;;;;4.97;1.15;;;14.60;99.90;;;;;;5056952;28;20033;-81
2021/05/21 12:30:21;;;;;;;3.35;1.20;;;14.60;99.90;;;;;;5056858;28;20104;-82
2021/05/21 12:32:48;;;;;;;1.67;0.57;;;14.70;99.90;;;;;;5039288;28;20032;-81
2021/05/21 12:35:16;;;;;;;3.78;0.80;;;14.60;99.90;;;;;;5039170;28;20031;-80
2021/05/21 12:37:47;;;;;;;2.88;0.80;;;14.60;99.90;;;;;;5057292;28;20040;-81
2021/05/21 12:40:14;;;;;;;3.42;0.70;;;14.70;99.90;;;;;;5038713;28;20029;-80
2021/05/21 12:42:52;;;;;;;2.65;0.73;;;14.60;99.90;;;;;;5056717;28;20048;-82
2021/05/21 12:45:19;;;;;;;1.20;0.70;;;14.60;99.90;;;;;;5038896;28;20021;-82
2021/05/21 12:47:50;;;;;;;1.63;0.52;;;14.60;99.90;;;;;;5038507;28;20040;-83
2021/05/21 12:50:18;;;;;;;7.07;1.20;;;14.50;99.90;;;;;;5035220;28;20382;-81
2021/05/21 12:53:02;;;;;;;1.63;0.80;;;14.50;99.90;;;;;;5036686;28;20080;-82